sensor_id;sensor_type;location;lat;lon;timestamp;pressure;altitude;pressure_sealevel;temperature
19102;BMP280;9683;49.028;12.064;2023-11-18T00:00:27;97892.44;;;6.63
19102;BMP280;9683;49.028;12.064;2023-11-18T00:02:53;97900.28;;;6.71
19102;BMP280;9683;49.028;12.064;2023-11-18T00:05:20;97905.84;;;6.76
19102;BMP280;9683;49.028;12.064;2023-11-18T00:07:50;97899.75;;;6.75
19102;BMP280;9683;49.028;12.064;2023-11-18T00:10:17;97906.47;;;6.78
19102;BMP280;9683;49.028;12.064;2023-11-18T00:12:43;97901.03;;;6.79
19102;BMP280;9683;49.028;12.064;2023-11-18T00:15:10;97889.16;;;6.75
19102;BMP280;9683;49.028;12.064;2023-11-18T00:17:37;97902.47;;;6.82
19102;BMP280;9683;49.028;12.064;2023-11-18T00:20:04;97904.31;;;6.81
19102;BMP280;9683;49.028;12.064;2023-11-18T00:22:34;97903.03;;;6.77
19102;BMP280;9683;49.028;12.064;2023-11-18T00:25:02;97910.41;;;6.82
19102;BMP280;9683;49.028;12.064;2023-11-18T00:27:32;97903.66;;;6.79
19102;BMP280;9683;49.028;12.064;2023-11-18T00:30:01;97905.31;;;6.80
19102;BMP280;9683;49.028;12.064;2023-11-18T00:32:30;97890.16;;;6.74
19102;BMP280;9683;49.028;12.064;2023-11-18T00:34:57;97901.03;;;6.79
19102;BMP280;9683;49.028;12.064;2023-11-18T00:37:23;97910.59;;;6.80
19102;BMP280;9683;49.028;12.064;2023-11-18T00:39:50;97906.13;;;6.81
19102;BMP280;9683;49.028;12.064;2023-11-18T00:42:18;97894.34;;;6.83
19102;BMP280;9683;49.028;12.064;2023-11-18T00:44:44;97899.66;;;6.83
19102;BMP280;9683;49.028;12.064;2023-11-18T00:47:11;97901.91;;;6.86
19102;BMP280;9683;49.028;12.064;2023-11-18T00:49:37;97911.34;;;6.89
19102;BMP280;9683;49.028;12.064;2023-11-18T00:52:05;97919.88;;;6.91
19102;BMP280;9683;49.028;12.064;2023-11-18T00:54:31;97915.97;;;6.87
19102;BMP280;9683;49.028;12.064;2023-11-18T00:56:58;97913.59;;;6.92
19102;BMP280;9683;49.028;12.064;2023-11-18T00:59:26;97921.38;;;6.94
19102;BMP280;9683;49.028;12.064;2023-11-18T01:01:53;97914.59;;;6.91
19102;BMP280;9683;49.028;12.064;2023-11-18T01:04:19;97918.72;;;6.94
19102;BMP280;9683;49.028;12.064;2023-11-18T01:06:46;97922.19;;;6.94
19102;BMP280;9683;49.028;12.064;2023-11-18T01:09:13;97924.84;;;6.94
19102;BMP280;9683;49.028;12.064;2023-11-18T01:11:41;97925.44;;;6.96
19102;BMP280;9683;49.028;12.064;2023-11-18T01:14:08;97928.09;;;6.96
19102;BMP280;9683;49.028;12.064;2023-11-18T01:16:35;97922.25;;;7.01
19102;BMP280;9683;49.028;12.064;2023-11-18T01:19:03;97926.66;;;6.94
19102;BMP280;9683;49.028;12.064;2023-11-18T01:21:29;97919.81;;;6.84
19102;BMP280;9683;49.028;12.064;2023-11-18T01:23:56;97928.19;;;6.88
19102;BMP280;9683;49.028;12.064;2023-11-18T01:26:22;97933.66;;;6.86
19102;BMP280;9683;49.028;12.064;2023-11-18T01:28:49;97935.69;;;6.84
19102;BMP280;9683;49.028;12.064;2023-11-18T01:31:15;97935.69;;;6.84
19102;BMP280;9683;49.028;12.064;2023-11-18T01:33:44;97936.31;;;6.86
19102;BMP280;9683;49.028;12.064;2023-11-18T01:36:12;97943.44;;;6.86
19102;BMP280;9683;49.028;12.064;2023-11-18T01:38:38;97932.03;;;6.85
19102;BMP280;9683;49.028;12.064;2023-11-18T01:41:05;97933.47;;;6.88
19102;BMP280;9683;49.028;12.064;2023-11-18T01:43:32;97940.22;;;6.90
19102;BMP280;9683;49.028;12.064;2023-11-18T01:45:59;97942.69;;;6.92
19102;BMP280;9683;49.028;12.064;2023-11-18T01:48:27;97937.78;;;6.89
19102;BMP280;9683;49.028;12.064;2023-11-18T01:50:57;97948.81;;;6.93
19102;BMP280;9683;49.028;12.064;2023-11-18T01:53:24;97946.34;;;6.91
19102;BMP280;9683;49.028;12.064;2023-11-18T01:55:51;97925.63;;;6.80
19102;BMP280;9683;49.028;12.064;2023-11-18T01:58:17;97948.97;;;6.91
19102;BMP280;9683;49.028;12.064;2023-11-18T02:00:45;97941.25;;;6.89
19102;BMP280;9683;49.028;12.064;2023-11-18T02:03:13;97940.78;;;6.86
19102;BMP280;9683;49.028;12.064;2023-11-18T02:05:39;97955.09;;;6.91
19102;BMP280;9683;49.028;12.064;2023-11-18T02:08:09;97944.13;;;6.95
19102;BMP280;9683;49.028;12.064;2023-11-18T02:10:46;97938.06;;;6.94
19102;BMP280;9683;49.028;12.064;2023-11-18T02:13:21;97933.56;;;6.95
19102;BMP280;9683;49.028;12.064;2023-11-18T02:15:52;97942.44;;;7.02
19102;BMP280;9683;49.028;12.064;2023-11-18T02:18:19;97945.91;;;7.02
19102;BMP280;9683;49.028;12.064;2023-11-18T02:20:47;97931.75;;;6.95
19102;BMP280;9683;49.028;12.064;2023-11-18T02:23:15;97946.34;;;7.06
19102;BMP280;9683;49.028;12.064;2023-11-18T02:25:45;97945.69;;;7.04
19102;BMP280;9683;49.028;12.064;2023-11-18T02:28:12;97942.44;;;7.02
19102;BMP280;9683;49.028;12.064;2023-11-18T02:30:39;97949.16;;;7.04
19102;BMP280;9683;49.028;12.064;2023-11-18T02:33:11;97940.22;;;7.05
19102;BMP280;9683;49.028;12.064;2023-11-18T02:35:46;97951.09;;;7.10
19102;BMP280;9683;49.028;12.064;2023-11-18T02:38:16;97946.63;;;7.11
19102;BMP280;9683;49.028;12.064;2023-11-18T02:40:46;97942.72;;;7.07
19102;BMP280;9683;49.028;12.064;2023-11-18T02:43:14;97939.69;;;7.10
19102;BMP280;9683;49.028;12.064;2023-11-18T02:45:42;97946.63;;;7.11
19102;BMP280;9683;49.028;12.064;2023-11-18T02:48:09;97943.78;;;7.12
19102;BMP280;9683;49.028;12.064;2023-11-18T02:50:36;97948.44;;;7.10
19102;BMP280;9683;49.028;12.064;2023-11-18T02:53:03;97945.59;;;7.12
19102;BMP280;9683;49.028;12.064;2023-11-18T02:55:30;97949.91;;;7.13
19102;BMP280;9683;49.028;12.064;2023-11-18T02:57:58;97952.00;;;7.17
19102;BMP280;9683;49.028;12.064;2023-11-18T03:00:24;97952.38;;;7.14
19102;BMP280;9683;49.028;12.064;2023-11-18T03:02:51;97941.50;;;7.09
19102;BMP280;9683;49.028;12.064;2023-11-18T03:05:18;97946.16;;;7.07
19102;BMP280;9683;49.028;12.064;2023-11-18T03:07:45;97952.91;;;7.10
19102;BMP280;9683;49.028;12.064;2023-11-18T03:10:14;97962.84;;;7.08
19102;BMP280;9683;49.028;12.064;2023-11-18T03:12:46;97963.50;;;7.10
19102;BMP280;9683;49.028;12.064;2023-11-18T03:15:14;97966.53;;;7.07
19102;BMP280;9683;49.028;12.064;2023-11-18T03:17:43;97966.69;;;7.05
19102;BMP280;9683;49.028;12.064;2023-11-18T03:20:10;97971.31;;;7.03
19102;BMP280;9683;49.028;12.064;2023-11-18T03:22:39;97967.59;;;6.98
19102;BMP280;9683;49.028;12.064;2023-11-18T03:25:06;97969.78;;;6.94
19102;BMP280;9683;49.028;12.064;2023-11-18T03:27:34;97963.03;;;6.91
19102;BMP280;9683;49.028;12.064;2023-11-18T03:30:01;97972.44;;;6.94
19102;BMP280;9683;49.028;12.064;2023-11-18T03:32:29;97966.88;;;6.89
19102;BMP280;9683;49.028;12.064;2023-11-18T03:34:56;97973.22;;;6.95
19102;BMP280;9683;49.028;12.064;2023-11-18T03:37:24;97965.31;;;6.95
19102;BMP280;9683;49.028;12.064;2023-11-18T03:39:51;97931.19;;;6.70
19102;BMP280;9683;49.028;12.064;2023-11-18T03:42:18;97982.19;;;6.94
19102;BMP280;9683;49.028;12.064;2023-11-18T03:44:44;97982.28;;;6.85
19102;BMP280;9683;49.028;12.064;2023-11-18T03:47:12;98003.16;;;6.95
19102;BMP280;9683;49.028;12.064;2023-11-18T03:49:40;97995.22;;;6.95
19102;BMP280;9683;49.028;12.064;2023-11-18T03:52:07;98003.53;;;6.92
19102;BMP280;9683;49.028;12.064;2023-11-18T03:54:33;97997.78;;;6.88
19102;BMP280;9683;49.028;12.064;2023-11-18T03:57:00;98000.97;;;6.84
19102;BMP280;9683;49.028;12.064;2023-11-18T03:59:26;97997.31;;;6.85
19102;BMP280;9683;49.028;12.064;2023-11-18T04:01:53;98004.25;;;6.86
19102;BMP280;9683;49.028;12.064;2023-11-18T04:04:19;97997.94;;;6.87
19102;BMP280;9683;49.028;12.064;2023-11-18T04:06:47;97999.59;;;6.88
19102;BMP280;9683;49.028;12.064;2023-11-18T04:09:14;98005.25;;;6.85
19102;BMP280;9683;49.028;12.064;2023-11-18T04:11:41;97990.56;;;6.82
19102;BMP280;9683;49.028;12.064;2023-11-18T04:14:10;98004.44;;;6.84
19102;BMP280;9683;49.028;12.064;2023-11-18T04:16:37;98007.06;;;6.84
19102;BMP280;9683;49.028;12.064;2023-11-18T04:19:04;97989.28;;;6.78
19102;BMP280;9683;49.028;12.064;2023-11-18T04:21:30;98004.97;;;6.80
19102;BMP280;9683;49.028;12.064;2023-11-18T04:23:58;97997.50;;;6.83
19102;BMP280;9683;49.028;12.064;2023-11-18T04:26:25;97988.72;;;6.83
19102;BMP280;9683;49.028;12.064;2023-11-18T04:28:51;97993.84;;;6.84
19102;BMP280;9683;49.028;12.064;2023-11-18T04:31:18;97994.03;;;6.83
19102;BMP280;9683;49.028;12.064;2023-11-18T04:33:44;97984.19;;;6.77
19102;BMP280;9683;49.028;12.064;2023-11-18T04:36:11;97994.03;;;6.83
19102;BMP280;9683;49.028;12.064;2023-11-18T04:38:38;97993.03;;;6.84
19102;BMP280;9683;49.028;12.064;2023-11-18T04:41:06;97997.66;;;6.82
19102;BMP280;9683;49.028;12.064;2023-11-18T04:43:33;98004.31;;;6.78
19102;BMP280;9683;49.028;12.064;2023-11-18T04:45:59;97998.75;;;6.73
19102;BMP280;9683;49.028;12.064;2023-11-18T04:48:26;98006.78;;;6.79
19102;BMP280;9683;49.028;12.064;2023-11-18T04:50:52;98012.91;;;6.80
19102;BMP280;9683;49.028;12.064;2023-11-18T04:53:19;98017.19;;;6.81
19102;BMP280;9683;49.028;12.064;2023-11-18T04:55:46;98014.72;;;6.79
19102;BMP280;9683;49.028;12.064;2023-11-18T04:58:14;97996.47;;;6.70
19102;BMP280;9683;49.028;12.064;2023-11-18T05:00:41;98007.78;;;6.78
19102;BMP280;9683;49.028;12.064;2023-11-18T05:03:07;98013.06;;;6.78
19102;BMP280;9683;49.028;12.064;2023-11-18T05:05:35;98014.72;;;6.79
19102;BMP280;9683;49.028;12.064;2023-11-18T05:08:03;97999.59;;;6.73
19102;BMP280;9683;49.028;12.064;2023-11-18T05:10:31;98004.50;;;6.76
19102;BMP280;9683;49.028;12.064;2023-11-18T05:12:58;98017.06;;;6.74
19102;BMP280;9683;49.028;12.064;2023-11-18T05:15:26;98013.44;;;6.75
19102;BMP280;9683;49.028;12.064;2023-11-18T05:17:55;98010.34;;;6.72
19102;BMP280;9683;49.028;12.064;2023-11-18T05:20:22;97993.56;;;6.65
19102;BMP280;9683;49.028;12.064;2023-11-18T05:22:48;98008.84;;;6.69
19102;BMP280;9683;49.028;12.064;2023-11-18T05:25:15;97992.28;;;6.61
19102;BMP280;9683;49.028;12.064;2023-11-18T05:27:41;97994.34;;;6.65
19102;BMP280;9683;49.028;12.064;2023-11-18T05:30:09;97999.75;;;6.72
19102;BMP280;9683;49.028;12.064;2023-11-18T05:32:37;98003.84;;;6.74
19102;BMP280;9683;49.028;12.064;2023-11-18T05:35:06;97998.75;;;6.73
19102;BMP280;9683;49.028;12.064;2023-11-18T05:37:36;97993.19;;;6.68
19102;BMP280;9683;49.028;12.064;2023-11-18T05:40:04;97997.28;;;6.70
19102;BMP280;9683;49.028;12.064;2023-11-18T05:42:32;97994.19;;;6.67
19102;BMP280;9683;49.028;12.064;2023-11-18T05:45:01;97993.81;;;6.70
19102;BMP280;9683;49.028;12.064;2023-11-18T05:47:27;98007.22;;;6.68
19102;BMP280;9683;49.028;12.064;2023-11-18T05:49:55;98010.34;;;6.72
19102;BMP280;9683;49.028;12.064;2023-11-18T05:52:22;97997.47;;;6.69
19102;BMP280;9683;49.028;12.064;2023-11-18T05:54:49;98007.03;;;6.70
19102;BMP280;9683;49.028;12.064;2023-11-18T05:57:15;98000.13;;;6.69
19102;BMP280;9683;49.028;12.064;2023-11-18T05:59:42;98001.22;;;6.74
19102;BMP280;9683;49.028;12.064;2023-11-18T06:02:09;98000.38;;;6.74
19102;BMP280;9683;49.028;12.064;2023-11-18T06:04:38;98011.63;;;6.76
19102;BMP280;9683;49.028;12.064;2023-11-18T06:07:06;98016.72;;;6.77
19102;BMP280;9683;49.028;12.064;2023-11-18T06:09:33;98025.00;;;6.74
19102;BMP280;9683;49.028;12.064;2023-11-18T06:12:00;98019.41;;;6.69
19102;BMP280;9683;49.028;12.064;2023-11-18T06:14:27;98028.00;;;6.71
19102;BMP280;9683;49.028;12.064;2023-11-18T06:16:54;98021.28;;;6.69
19102;BMP280;9683;49.028;12.064;2023-11-18T06:19:20;98028.53;;;6.67
19102;BMP280;9683;49.028;12.064;2023-11-18T06:21:47;98031.56;;;6.64
19102;BMP280;9683;49.028;12.064;2023-11-18T06:24:16;98015.22;;;6.60
19102;BMP280;9683;49.028;12.064;2023-11-18T06:26:44;98020.69;;;6.59
19102;BMP280;9683;49.028;12.064;2023-11-18T06:29:10;98024.53;;;6.56
19102;BMP280;9683;49.028;12.064;2023-11-18T06:31:37;98030.34;;;6.52
19102;BMP280;9683;49.028;12.064;2023-11-18T06:34:02;98034.97;;;6.50
19102;BMP280;9683;49.028;12.064;2023-11-18T06:36:29;98035.84;;;6.42
19102;BMP280;9683;49.028;12.064;2023-11-18T06:38:56;98048.97;;;6.35
19102;BMP280;9683;49.028;12.064;2023-11-18T06:41:25;98042.34;;;6.31
19102;BMP280;9683;49.028;12.064;2023-11-18T06:43:59;98053.47;;;6.27
19102;BMP280;9683;49.028;12.064;2023-11-18T06:46:29;98050.34;;;6.23
19102;BMP280;9683;49.028;12.064;2023-11-18T06:48:59;98049.03;;;6.19
19102;BMP280;9683;49.028;12.064;2023-11-18T06:51:30;98043.13;;;6.17
19102;BMP280;9683;49.028;12.064;2023-11-18T06:53:58;98047.75;;;6.15
19102;BMP280;9683;49.028;12.064;2023-11-18T06:56:27;98049.41;;;6.16
19102;BMP280;9683;49.028;12.064;2023-11-18T06:58:54;98061.31;;;6.12
19102;BMP280;9683;49.028;12.064;2023-11-18T07:01:21;98062.78;;;6.15
19102;BMP280;9683;49.028;12.064;2023-11-18T07:03:49;98053.38;;;6.12
19102;BMP280;9683;49.028;12.064;2023-11-18T07:06:18;98055.41;;;6.10
19102;BMP280;9683;49.028;12.064;2023-11-18T07:08:47;98059.66;;;6.11
19102;BMP280;9683;49.028;12.064;2023-11-18T07:11:14;98044.31;;;6.07
19102;BMP280;9683;49.028;12.064;2023-11-18T07:13:43;98058.97;;;6.17
19102;BMP280;9683;49.028;12.064;2023-11-18T07:16:09;98057.78;;;6.20
19102;BMP280;9683;49.028;12.064;2023-11-18T07:18:37;98069.50;;;6.25
19102;BMP280;9683;49.028;12.064;2023-11-18T07:21:04;98074.41;;;6.28
19102;BMP280;9683;49.028;12.064;2023-11-18T07:23:31;98068.97;;;6.30
19102;BMP280;9683;49.028;12.064;2023-11-18T07:25:58;98073.06;;;6.32
19102;BMP280;9683;49.028;12.064;2023-11-18T07:28:25;98067.31;;;6.29
19102;BMP280;9683;49.028;12.064;2023-11-18T07:30:53;98077.19;;;6.35
19102;BMP280;9683;49.028;12.064;2023-11-18T07:33:20;98064.84;;;6.27
19102;BMP280;9683;49.028;12.064;2023-11-18T07:35:48;98083.94;;;6.37
19102;BMP280;9683;49.028;12.064;2023-11-18T07:38:15;98096.63;;;6.42
19102;BMP280;9683;49.028;12.064;2023-11-18T07:40:43;98103.38;;;6.44
19102;BMP280;9683;49.028;12.064;2023-11-18T07:43:11;98100.22;;;6.49
19102;BMP280;9683;49.028;12.064;2023-11-18T07:45:38;98109.63;;;6.52
19102;BMP280;9683;49.028;12.064;2023-11-18T07:48:07;98110.44;;;6.52
19102;BMP280;9683;49.028;12.064;2023-11-18T07:50:34;98085.75;;;6.37
19102;BMP280;9683;49.028;12.064;2023-11-18T07:53:01;98106.97;;;6.52
19102;BMP280;9683;49.028;12.064;2023-11-18T07:55:27;98102.38;;;6.45
19102;BMP280;9683;49.028;12.064;2023-11-18T07:57:55;98107.63;;;6.54
19102;BMP280;9683;49.028;12.064;2023-11-18T08:00:21;98103.16;;;6.54
19102;BMP280;9683;49.028;12.064;2023-11-18T08:02:49;98111.50;;;6.66
19102;BMP280;9683;49.028;12.064;2023-11-18T08:05:18;98105.50;;;6.72
19102;BMP280;9683;49.028;12.064;2023-11-18T08:07:45;98107.78;;;6.75
19102;BMP280;9683;49.028;12.064;2023-11-18T08:10:12;98109.38;;;6.84
19102;BMP280;9683;49.028;12.064;2023-11-18T08:12:44;98105.53;;;6.86
19102;BMP280;9683;49.028;12.064;2023-11-18T08:15:10;98100.63;;;6.83
19102;BMP280;9683;49.028;12.064;2023-11-18T08:17:37;98107.66;;;6.91
19102;BMP280;9683;49.028;12.064;2023-11-18T08:20:04;98106.31;;;6.95
19102;BMP280;9683;49.028;12.064;2023-11-18T08:22:40;98115.00;;;7.04
19102;BMP280;9683;49.028;12.064;2023-11-18T08:25:09;98118.94;;;7.08
19102;BMP280;9683;49.028;12.064;2023-11-18T08:27:36;98089.06;;;6.99
19102;BMP280;9683;49.028;12.064;2023-11-18T08:30:02;98094.41;;;7.14
19102;BMP280;9683;49.028;12.064;2023-11-18T08:32:31;98108.09;;;7.17
19102;BMP280;9683;49.028;12.064;2023-11-18T08:34:58;98105.75;;;7.22
19102;BMP280;9683;49.028;12.064;2023-11-18T08:37:25;98112.31;;;7.26
19102;BMP280;9683;49.028;12.064;2023-11-18T08:39:54;98110.31;;;7.28
19102;BMP280;9683;49.028;12.064;2023-11-18T08:42:21;98107.31;;;7.31
19102;BMP280;9683;49.028;12.064;2023-11-18T08:44:48;98119.66;;;7.39
19102;BMP280;9683;49.028;12.064;2023-11-18T08:47:14;98107.53;;;7.45
19102;BMP280;9683;49.028;12.064;2023-11-18T08:49:42;98099.00;;;7.49
19102;BMP280;9683;49.028;12.064;2023-11-18T08:52:11;98088.06;;;7.52
19102;BMP280;9683;49.028;12.064;2023-11-18T08:54:38;98091.00;;;7.57
19102;BMP280;9683;49.028;12.064;2023-11-18T08:57:26;98106.44;;;7.68
19102;BMP280;9683;49.028;12.064;2023-11-18T08:59:53;98108.69;;;7.71
19102;BMP280;9683;49.028;12.064;2023-11-18T09:02:24;98113.63;;;7.74
19102;BMP280;9683;49.028;12.064;2023-11-18T09:04:49;98111.91;;;7.81
19102;BMP280;9683;49.028;12.064;2023-11-18T09:07:17;98112.97;;;7.87
19102;BMP280;9683;49.028;12.064;2023-11-18T09:09:44;98106.22;;;7.99
19102;BMP280;9683;49.028;12.064;2023-11-18T09:12:14;98095.88;;;8.04
19102;BMP280;9683;49.028;12.064;2023-11-18T09:14:44;98097.78;;;8.10
19102;BMP280;9683;49.028;12.064;2023-11-18T09:17:13;98097.41;;;8.13
19102;BMP280;9683;49.028;12.064;2023-11-18T09:19:40;98099.72;;;8.16
19102;BMP280;9683;49.028;12.064;2023-11-18T09:22:06;98101.44;;;8.24
19102;BMP280;9683;49.028;12.064;2023-11-18T09:24:33;98111.31;;;8.30
19102;BMP280;9683;49.028;12.064;2023-11-18T09:26:59;98122.56;;;8.32
19102;BMP280;9683;49.028;12.064;2023-11-18T09:29:28;98119.91;;;8.32
19102;BMP280;9683;49.028;12.064;2023-11-18T09:31:56;98132.22;;;8.40
19102;BMP280;9683;49.028;12.064;2023-11-18T09:34:24;98110.13;;;8.33
19102;BMP280;9683;49.028;12.064;2023-11-18T09:36:58;98121.06;;;8.44
19102;BMP280;9683;49.028;12.064;2023-11-18T09:39:25;98113.72;;;8.46
19102;BMP280;9683;49.028;12.064;2023-11-18T09:42:05;98126.69;;;8.56
19102;BMP280;9683;49.028;12.064;2023-11-18T09:44:36;98135.31;;;8.58
19102;BMP280;9683;49.028;12.064;2023-11-18T09:47:07;98139.84;;;8.64
19102;BMP280;9683;49.028;12.064;2023-11-18T09:49:40;98130.69;;;8.66
19102;BMP280;9683;49.028;12.064;2023-11-18T09:52:07;98136.19;;;8.65
19102;BMP280;9683;49.028;12.064;2023-11-18T09:54:39;98132.97;;;8.69
19102;BMP280;9683;49.028;12.064;2023-11-18T09:57:08;98124.19;;;8.69
19102;BMP280;9683;49.028;12.064;2023-11-18T09:59:43;98113.31;;;8.64
19102;BMP280;9683;49.028;12.064;2023-11-18T10:02:13;98119.13;;;8.74
19102;BMP280;9683;49.028;12.064;2023-11-18T10:04:44;98115.09;;;8.78
19102;BMP280;9683;49.028;12.064;2023-11-18T10:07:11;98114.88;;;8.80
19102;BMP280;9683;49.028;12.064;2023-11-18T10:09:42;98110.06;;;8.83
19102;BMP280;9683;49.028;12.064;2023-11-18T10:12:09;98109.47;;;8.88
19102;BMP280;9683;49.028;12.064;2023-11-18T10:14:42;98086.84;;;8.92
19102;BMP280;9683;49.028;12.064;2023-11-18T10:17:10;98062.91;;;8.85
19102;BMP280;9683;49.028;12.064;2023-11-18T10:19:51;98092.31;;;9.11
19102;BMP280;9683;49.028;12.064;2023-11-18T10:22:25;98090.75;;;9.17
19102;BMP280;9683;49.028;12.064;2023-11-18T10:24:52;98100.41;;;9.25
19102;BMP280;9683;49.028;12.064;2023-11-18T10:27:21;98083.47;;;9.26
19102;BMP280;9683;49.028;12.064;2023-11-18T10:29:49;98094.16;;;9.39
19102;BMP280;9683;49.028;12.064;2023-11-18T10:32:17;98069.34;;;9.25
19102;BMP280;9683;49.028;12.064;2023-11-18T10:34:47;98087.44;;;9.43
19102;BMP280;9683;49.028;12.064;2023-11-18T10:37:16;98093.41;;;9.51
19102;BMP280;9683;49.028;12.064;2023-11-18T10:39:46;98097.31;;;9.55
19102;BMP280;9683;49.028;12.064;2023-11-18T10:42:16;98086.91;;;9.54
19102;BMP280;9683;49.028;12.064;2023-11-18T10:44:54;98082.41;;;9.54
19102;BMP280;9683;49.028;12.064;2023-11-18T10:47:23;98089.22;;;9.63
19102;BMP280;9683;49.028;12.064;2023-11-18T10:49:51;98090.84;;;9.64
19102;BMP280;9683;49.028;12.064;2023-11-18T10:52:19;98090.47;;;9.68
19102;BMP280;9683;49.028;12.064;2023-11-18T10:54:53;98095.38;;;9.71
19102;BMP280;9683;49.028;12.064;2023-11-18T10:57:21;98084.69;;;9.64
19102;BMP280;9683;49.028;12.064;2023-11-18T10:59:58;98095.56;;;9.69
19102;BMP280;9683;49.028;12.064;2023-11-18T11:02:29;98095.34;;;9.64
19102;BMP280;9683;49.028;12.064;2023-11-18T11:05:00;98084.28;;;9.60
19102;BMP280;9683;49.028;12.064;2023-11-18T11:07:29;98075.50;;;9.60
19102;BMP280;9683;49.028;12.064;2023-11-18T11:09:57;98066.50;;;9.61
19102;BMP280;9683;49.028;12.064;2023-11-18T11:12:33;98077.78;;;9.70
19102;BMP280;9683;49.028;12.064;2023-11-18T11:15:04;98070.06;;;9.75
19102;BMP280;9683;49.028;12.064;2023-11-18T11:17:39;98083.19;;;9.89
19102;BMP280;9683;49.028;12.064;2023-11-18T11:20:13;98079.38;;;9.98
19102;BMP280;9683;49.028;12.064;2023-11-18T11:22:58;98083.50;;;10.01
19102;BMP280;9683;49.028;12.064;2023-11-18T11:25:36;98042.06;;;9.79
19102;BMP280;9683;49.028;12.064;2023-11-18T11:28:11;98079.19;;;10.00
19102;BMP280;9683;49.028;12.064;2023-11-18T11:30:43;98071.22;;;10.06
19102;BMP280;9683;49.028;12.064;2023-11-18T11:33:14;98076.16;;;10.09
19102;BMP280;9683;49.028;12.064;2023-11-18T11:35:49;98061.44;;;10.13
19102;BMP280;9683;49.028;12.064;2023-11-18T11:38:23;98075.44;;;10.22
19102;BMP280;9683;49.028;12.064;2023-11-18T11:40:52;98085.88;;;10.37
19102;BMP280;9683;49.028;12.064;2023-11-18T11:43:21;98078.72;;;10.37
19102;BMP280;9683;49.028;12.064;2023-11-18T11:45:49;98070.75;;;10.31
19102;BMP280;9683;49.028;12.064;2023-11-18T11:48:17;98066.84;;;10.40
19102;BMP280;9683;49.028;12.064;2023-11-18T11:51:02;98068.72;;;10.39
19102;BMP280;9683;49.028;12.064;2023-11-18T11:53:34;98057.63;;;10.36
19102;BMP280;9683;49.028;12.064;2023-11-18T11:56:05;98054.19;;;10.35
19102;BMP280;9683;49.028;12.064;2023-11-18T11:58:34;98056.63;;;10.37
19102;BMP280;9683;49.028;12.064;2023-11-18T12:01:15;98053.97;;;10.37
19102;BMP280;9683;49.028;12.064;2023-11-18T12:03:44;98060.34;;;10.42
19102;BMP280;9683;49.028;12.064;2023-11-18T12:06:14;98056.84;;;10.48
19102;BMP280;9683;49.028;12.064;2023-11-18T12:08:51;98053.59;;;10.53
19102;BMP280;9683;49.028;12.064;2023-11-18T12:11:17;98043.16;;;10.58
19102;BMP280;9683;49.028;12.064;2023-11-18T12:14:00;98041.75;;;10.69
19102;BMP280;9683;49.028;12.064;2023-11-18T12:17:00;98043.16;;;10.78
19102;BMP280;9683;49.028;12.064;2023-11-18T12:19:35;98037.88;;;10.84
19102;BMP280;9683;49.028;12.064;2023-11-18T12:22:19;98037.88;;;10.84
19102;BMP280;9683;49.028;12.064;2023-11-18T12:27:56;98008.19;;;10.81
19102;BMP280;9683;49.028;12.064;2023-11-18T12:30:39;97999.97;;;10.82
19102;BMP280;9683;49.028;12.064;2023-11-18T12:33:17;98011.84;;;10.80
19102;BMP280;9683;49.028;12.064;2023-11-18T12:36:25;97996.72;;;10.80
19102;BMP280;9683;49.028;12.064;2023-11-18T12:42:44;97971.31;;;10.78
19102;BMP280;9683;49.028;12.064;2023-11-18T12:45:43;97975.59;;;10.79
19102;BMP280;9683;49.028;12.064;2023-11-18T12:48:14;97969.47;;;10.78
19102;BMP280;9683;49.028;12.064;2023-11-18T12:50:41;97963.13;;;10.73
19102;BMP280;9683;49.028;12.064;2023-11-18T12:53:10;97954.53;;;10.71
19102;BMP280;9683;49.028;12.064;2023-11-18T12:55:40;97939.41;;;10.65
19102;BMP280;9683;49.028;12.064;2023-11-18T12:58:07;97946.75;;;10.63
19102;BMP280;9683;49.028;12.064;2023-11-18T13:00:40;97943.66;;;10.66
19102;BMP280;9683;49.028;12.064;2023-11-18T13:03:08;97958.22;;;10.63
19102;BMP280;9683;49.028;12.064;2023-11-18T13:05:36;97950.44;;;10.62
19102;BMP280;9683;49.028;12.064;2023-11-18T13:08:03;97937.13;;;10.62
19102;BMP280;9683;49.028;12.064;2023-11-18T13:10:30;97936.94;;;10.63
19102;BMP280;9683;49.028;12.064;2023-11-18T13:12:58;97933.44;;;10.63
19102;BMP280;9683;49.028;12.064;2023-11-18T13:15:25;97941.84;;;10.60
19102;BMP280;9683;49.028;12.064;2023-11-18T13:18:01;97950.22;;;10.56
19102;BMP280;9683;49.028;12.064;2023-11-18T13:20:31;97951.47;;;10.54
19102;BMP280;9683;49.028;12.064;2023-11-18T13:23:00;97948.41;;;10.50
19102;BMP280;9683;49.028;12.064;2023-11-18T13:25:34;97943.66;;;10.52
19102;BMP280;9683;49.028;12.064;2023-11-18T13:28:00;97943.28;;;10.55
19102;BMP280;9683;49.028;12.064;2023-11-18T13:30:27;97946.34;;;10.59
19102;BMP280;9683;49.028;12.064;2023-11-18T13:32:54;97938.97;;;10.54
19102;BMP280;9683;49.028;12.064;2023-11-18T13:35:23;97933.47;;;10.56
19102;BMP280;9683;49.028;12.064;2023-11-18T13:37:49;97936.72;;;10.58
19102;BMP280;9683;49.028;12.064;2023-11-18T13:40:18;97935.50;;;10.54
19102;BMP280;9683;49.028;12.064;2023-11-18T13:42:46;97936.72;;;10.51
19102;BMP280;9683;49.028;12.064;2023-11-18T13:45:13;97939.59;;;10.50
19102;BMP280;9683;49.028;12.064;2023-11-18T13:47:49;97931.19;;;10.46
19102;BMP280;9683;49.028;12.064;2023-11-18T13:50:16;97927.09;;;10.44
19102;BMP280;9683;49.028;12.064;2023-11-18T13:52:45;97927.94;;;10.51
19102;BMP280;9683;49.028;12.064;2023-11-18T13:55:15;97932.00;;;10.53
19102;BMP280;9683;49.028;12.064;2023-11-18T13:57:47;97942.66;;;10.47
19102;BMP280;9683;49.028;12.064;2023-11-18T14:00:15;97948.41;;;10.50
19102;BMP280;9683;49.028;12.064;2023-11-18T14:02:42;97922.81;;;10.30
19102;BMP280;9683;49.028;12.064;2023-11-18T14:05:15;97947.34;;;10.45
19102;BMP280;9683;49.028;12.064;2023-11-18T14:07:45;97937.72;;;10.44
19102;BMP280;9683;49.028;12.064;2023-11-18T14:10:12;97942.66;;;10.40
19102;BMP280;9683;49.028;12.064;2023-11-18T14:12:39;97949.00;;;10.39
19102;BMP280;9683;49.028;12.064;2023-11-18T14:15:07;97935.91;;;10.38
19102;BMP280;9683;49.028;12.064;2023-11-18T14:17:35;97929.97;;;10.36
19102;BMP280;9683;49.028;12.064;2023-11-18T14:20:02;97929.97;;;10.36
19102;BMP280;9683;49.028;12.064;2023-11-18T14:22:28;97922.78;;;10.36
19102;BMP280;9683;49.028;12.064;2023-11-18T14:24:56;97911.56;;;10.34
19102;BMP280;9683;49.028;12.064;2023-11-18T14:27:23;97907.03;;;10.28
19102;BMP280;9683;49.028;12.064;2023-11-18T14:29:50;97900.50;;;10.24
19102;BMP280;9683;49.028;12.064;2023-11-18T14:32:17;97901.50;;;10.23
19102;BMP280;9683;49.028;12.064;2023-11-18T14:34:43;97890.09;;;10.23